Nicholson, Kentucky
Current Conditions -  °F | °C
As of 6:52 AM on Friday 28 Nov 2014 (Local Time) from KCVG Reporting Station
Overcast Overcast  
Wind Chill: 19°   Ceiling: 3500
Heat Index: 27°   Visibility: 9mi
Dew Point: 19°   Wind: 8mph
Humidity: 72%   Direction: 260°W
Pressure: 30.39"   Gusts: NA
Location:  38.9286°N, 84.5381°W
Report Text: KCVG 281152Z 26007KT 9SM OVC035 M03/M07 A3039 RMK AO2 SLP300 931000 60000 T10281072 11022 21039 53005
Loading
Personal Weather Stations






























Interactive Weather Map New forecast layout! Learn more

10-Day Weather Forecast

Advertisements
Track Severe Weather on mobile